Time;durP1;ratioP1;P1;durP2;ratioP2;P2;SDS_P1;SDS_P2;PMS_P1;PMS_P2;Temp;Humidity;BMP_temperature;BMP_pressure;BME280_temperature;BME280_humidity;BME280_pressure;Samples;Min_cycle;Max_cycle;Signal;HPM_P1;HPM_P2
2022/07/19 00:00:15;;;;;;;9.00;2.85;;;;;;;20.54;52.83;99461.25;5211316;28;20140;-69
2022/07/19 00:03:05;;;;;;;7.82;3.33;;;;;;;20.42;53.69;99470.84;5194110;28;20045;-68
2022/07/19 00:05:55;;;;;;;6.95;3.38;;;;;;;20.44;52.55;99479.56;5194832;28;20142;-68
2022/07/19 00:08:45;;;;;;;4.95;2.90;;;;;;;20.26;53.07;99465.75;5190578;28;20046;-68
2022/07/19 00:11:35;;;;;;;7.22;3.10;;;;;;;20.17;53.04;99463.22;5198131;28;20179;-68
2022/07/19 00:14:26;;;;;;;12.65;3.60;;;;;;;20.23;53.01;99460.75;5191466;28;20075;-67
2022/07/19 00:17:16;;;;;;;9.52;3.03;;;;;;;20.19;54.05;99474.59;5194968;28;20069;-68
2022/07/19 00:20:06;;;;;;;6.25;3.28;;;;;;;19.97;54.25;99472.97;5192750;28;20048;-67
2022/07/19 00:22:57;;;;;;;3.67;3.00;;;;;;;19.93;53.85;99469.84;5187344;28;20052;-67
2022/07/19 00:25:47;;;;;;;5.85;3.25;;;;;;;19.93;54.27;99471.66;5191923;28;20466;-68
2022/07/19 00:28:37;;;;;;;9.95;3.78;;;;;;;19.80;54.66;99476.91;5196192;28;20046;-68
2022/07/19 00:31:28;;;;;;;7.63;3.20;;;;;;;19.78;54.02;99460.16;5194985;28;20053;-67
2022/07/19 00:34:19;;;;;;;10.32;3.60;;;;;;;19.74;53.55;99465.09;5198301;28;20115;-68
2022/07/19 00:37:09;;;;;;;11.30;3.30;;;;;;;19.72;54.58;99467.13;5209732;28;20703;-68
2022/07/19 00:39:59;;;;;;;4.50;3.05;;;;;;;19.82;54.17;99454.19;5198486;28;20528;-67
2022/07/19 00:42:51;;;;;;;9.15;3.17;;;;;;;19.82;54.33;99464.94;5213724;28;20159;-68
2022/07/19 00:45:42;;;;;;;8.07;3.67;;;;;;;19.82;54.31;99464.94;5199813;28;20099;-68
2022/07/19 00:48:32;;;;;;;6.95;3.40;;;;;;;19.95;54.41;99470.47;5197446;28;20049;-68
2022/07/19 00:51:22;;;;;;;6.55;3.50;;;;;;;19.90;54.27;99470.22;5198132;28;20424;-68
2022/07/19 00:54:14;;;;;;;5.32;3.22;;;;;;;19.75;54.44;99464.06;5200169;28;20183;-68
2022/07/19 00:57:04;;;;;;;6.28;3.10;;;;;;;19.74;53.98;99459.72;5199214;28;20093;-67
2022/07/19 00:59:54;;;;;;;7.88;3.90;;;;;;;19.77;54.79;99471.91;5198824;28;20056;-68
2022/07/19 01:02:45;;;;;;;8.38;3.65;;;;;;;19.64;55.12;99461.88;5199275;28;20115;-68
2022/07/19 01:05:35;;;;;;;5.78;3.70;;;;;;;19.40;55.55;99466.56;5198975;28;20062;-68
2022/07/19 01:08:26;;;;;;;5.00;3.83;;;;;;;19.20;56.50;99469.00;5197423;28;20054;-67
2022/07/19 01:11:16;;;;;;;5.78;3.38;;;;;;;19.36;56.19;99472.47;5196835;28;20615;-68
2022/07/19 01:14:07;;;;;;;9.82;3.22;;;;;;;19.33;56.20;99472.84;5198620;28;20049;-67
2022/07/19 01:16:59;;;;;;;6.90;3.88;;;;;;;19.41;57.04;99470.06;5200465;28;20050;-68
2022/07/19 01:19:49;;;;;;;10.52;4.72;;;;;;;19.30;56.32;99466.00;5196248;28;20124;-68
2022/07/19 01:22:41;;;;;;;6.88;3.55;;;;;;;19.51;56.27;99470.59;5195476;28;20131;-67
2022/07/19 01:25:34;;;;;;;7.53;3.72;;;;;;;19.23;55.90;99449.78;5199791;28;20053;-68
2022/07/19 01:28:24;;;;;;;10.77;4.03;;;;;;;19.20;56.26;99465.47;5199828;28;20435;-68
2022/07/19 01:31:15;;;;;;;8.00;3.75;;;;;;;19.24;55.78;99475.66;5195303;28;20048;-68
2022/07/19 01:34:05;;;;;;;6.85;3.30;;;;;;;18.99;56.34;99469.75;5195519;28;20057;-68
2022/07/19 01:36:56;;;;;;;6.45;3.70;;;;;;;18.75;57.68;99443.19;5200192;28;20049;-68
2022/07/19 01:39:46;;;;;;;6.10;3.90;;;;;;;19.00;57.17;99471.41;5197055;28;20194;-68
2022/07/19 01:42:37;;;;;;;7.85;3.30;;;;;;;18.93;56.44;99470.50;5195910;28;20259;-67
2022/07/19 01:45:27;;;;;;;6.28;3.10;;;;;;;18.99;57.07;99471.63;5198200;28;20191;-67
2022/07/19 01:48:17;;;;;;;9.63;4.10;;;;;;;18.95;57.40;99473.00;5196727;28;20041;-67
2022/07/19 01:51:07;;;;;;;9.93;3.78;;;;;;;19.02;57.12;99472.06;5190961;28;20050;-68
2022/07/19 01:53:58;;;;;;;8.77;3.72;;;;;;;18.83;56.82;99464.56;5194509;28;20054;-68
2022/07/19 01:56:48;;;;;;;7.05;3.13;;;;;;;18.70;57.39;99467.88;5196204;28;20144;-67
2022/07/19 01:59:38;;;;;;;10.10;3.50;;;;;;;18.95;57.43;99470.31;5200808;28;20057;-67
2022/07/19 02:02:29;;;;;;;6.57;3.65;;;;;;;18.77;57.72;99452.75;5194277;28;20077;-68
2022/07/19 02:05:19;;;;;;;10.95;3.63;;;;;;;18.67;57.59;99443.22;5197266;28;20203;-68
2022/07/19 02:08:10;;;;;;;6.03;3.67;;;;;;;18.69;57.67;99460.00;5193778;28;20052;-67
2022/07/19 02:11:34;;;;;;;10.57;3.45;;;;;;;18.61;58.11;99466.31;5199071;28;20057;-67
2022/07/19 02:14:11;;;;;;;6.93;3.75;;;;;;;18.66;58.40;99466.56;5197698;28;20052;-68
2022/07/19 02:17:01;;;;;;;6.97;3.75;;;;;;;18.57;58.19;99473.03;5198733;28;20056;-68
2022/07/19 02:19:51;;;;;;;7.03;3.38;;;;;;;18.62;57.58;99465.28;5194839;28;20605;-67
2022/07/19 02:22:41;;;;;;;7.57;4.32;;;;;;;18.55;57.87;99456.31;5193154;28;20485;-68
2022/07/19 02:25:32;;;;;;;8.20;3.53;;;;;;;18.55;57.22;99457.13;5199426;28;20119;-68
2022/07/19 02:28:23;;;;;;;5.47;3.67;;;;;;;18.43;57.54;99455.06;5198741;28;20212;-67
2022/07/19 02:31:13;;;;;;;7.57;3.60;;;;;;;18.31;57.81;99447.47;5191876;28;20500;-68
2022/07/19 02:34:03;;;;;;;5.18;3.72;;;;;;;18.45;57.27;99455.75;5199190;28;20049;-68
2022/07/19 02:36:54;;;;;;;6.18;3.65;;;;;;;18.35;58.08;99449.81;5194045;28;20042;-67
2022/07/19 02:39:44;;;;;;;7.15;4.05;;;;;;;18.34;58.09;99454.31;5192793;28;20052;-67
2022/07/19 02:42:34;;;;;;;4.75;3.55;;;;;;;18.48;57.19;99441.94;5198259;28;20191;-68
2022/07/19 02:45:24;;;;;;;11.15;4.40;;;;;;;18.28;57.80;99449.69;5197575;28;20087;-67
2022/07/19 02:48:15;;;;;;;5.90;4.10;;;;;;;18.27;57.80;99435.41;5196955;28;20419;-68
2022/07/19 02:51:10;;;;;;;5.88;4.13;;;;;;;18.12;58.74;99441.78;5191759;28;20423;-68
2022/07/19 02:54:00;;;;;;;7.07;3.80;;;;;;;17.96;58.12;99429.34;5192058;28;20421;-67
2022/07/19 02:56:50;;;;;;;6.30;3.70;;;;;;;17.99;58.04;99448.59;5194463;28;20128;-68
2022/07/19 02:59:40;;;;;;;6.10;3.75;;;;;;;17.88;58.44;99449.03;5199324;28;20072;-69
2022/07/19 03:02:31;;;;;;;5.63;3.90;;;;;;;18.02;58.16;99442.03;5193911;28;20053;-68
2022/07/19 03:05:21;;;;;;;6.95;3.90;;;;;;;17.90;57.91;99440.78;5193946;28;20053;-68
2022/07/19 03:08:11;;;;;;;4.53;3.78;;;;;;;17.78;59.58;99435.00;5193398;28;20068;-68
2022/07/19 03:11:02;;;;;;;8.65;4.40;;;;;;;17.99;59.75;99447.78;5196099;28;20046;-67
2022/07/19 03:13:52;;;;;;;10.70;3.85;;;;;;;17.86;59.73;99445.69;5192383;28;20053;-67
2022/07/19 03:16:42;;;;;;;7.80;3.92;;;;;;;17.78;60.11;99437.69;5196967;28;20052;-66
2022/07/19 03:19:33;;;;;;;6.30;4.10;;;;;;;17.90;59.50;99440.78;5192259;28;20191;-68
2022/07/19 03:22:24;;;;;;;8.43;4.28;;;;;;;17.78;58.99;99443.06;5196279;28;20522;-68
2022/07/19 03:25:14;;;;;;;5.70;3.85;;;;;;;17.79;58.67;99447.41;5210577;23;20266;-68
2022/07/19 03:28:05;;;;;;;5.78;3.95;;;;;;;17.76;59.25;99445.94;5167795;28;20093;-68
2022/07/19 03:30:55;;;;;;;5.10;3.60;;;;;;;17.74;59.52;99450.59;5153045;28;20052;-68
2022/07/19 03:33:45;;;;;;;6.75;3.97;;;;;;;17.79;58.89;99455.47;5171170;28;20461;-68
2022/07/19 03:36:35;;;;;;;7.07;3.75;;;;;;;17.74;59.55;99453.28;5180986;28;20135;-68
2022/07/19 03:39:26;;;;;;;10.02;3.90;;;;;;;17.84;58.95;99436.97;5178978;28;20056;-68
2022/07/19 03:42:16;;;;;;;9.82;4.55;;;;;;;17.76;59.25;99445.94;5174640;28;20057;-68
2022/07/19 03:45:07;;;;;;;8.55;5.07;;;;;;;17.76;58.78;99442.38;5179548;28;20053;-68
2022/07/19 03:47:57;;;;;;;6.05;4.18;;;;;;;17.73;59.20;99446.25;5177166;28;20103;-68
2022/07/19 03:50:48;;;;;;;5.90;4.30;;;;;;;17.64;59.76;99450.00;5177879;28;20143;-68
2022/07/19 03:53:38;;;;;;;9.35;4.60;;;;;;;17.67;59.44;99451.50;5181531;28;20081;-68
2022/07/19 03:56:28;;;;;;;5.95;4.20;;;;;;;17.66;59.73;99455.19;5177478;28;20056;-68
2022/07/19 03:59:18;;;;;;;12.48;4.47;;;;;;;17.65;58.89;99456.19;5165502;28;20855;-68
2022/07/19 04:02:08;;;;;;;6.18;3.97;;;;;;;17.44;59.73;99456.84;5175645;28;20054;-68
2022/07/19 04:04:58;;;;;;;5.35;3.95;;;;;;;17.38;59.92;99461.91;5178433;28;20053;-68
2022/07/19 04:07:49;;;;;;;7.45;4.10;;;;;;;17.40;60.62;99450.16;5176870;28;20081;-68
2022/07/19 04:10:41;;;;;;;6.47;4.25;;;;;;;17.51;60.70;99452.44;5182769;28;20054;-68
2022/07/19 04:13:33;;;;;;;7.07;4.40;;;;;;;17.71;60.15;99450.13;5182868;28;20088;-68
2022/07/19 04:16:23;;;;;;;6.13;4.25;;;;;;;17.62;59.47;99444.00;5185217;28;20444;-68
2022/07/19 04:19:13;;;;;;;8.02;4.53;;;;;;;17.73;60.11;99453.47;5182669;28;20038;-68
2022/07/19 04:22:04;;;;;;;6.63;4.15;;;;;;;17.75;60.21;99465.69;5180856;28;20116;-68
2022/07/19 04:24:54;;;;;;;5.28;3.97;;;;;;;17.71;60.81;99472.41;5180252;28;20052;-68
2022/07/19 04:27:45;;;;;;;8.52;4.85;;;;;;;18.04;62.35;99474.88;5179021;28;20570;-68
2022/07/19 04:30:35;;;;;;;6.38;3.88;;;;;;;17.91;61.16;99474.66;5168928;28;20663;-67
2022/07/19 04:33:26;;;;;;;13.27;4.80;;;;;;;17.91;61.00;99470.09;5182837;28;20060;-67
2022/07/19 04:36:16;;;;;;;9.57;4.15;;;;;;;17.90;60.63;99465.75;5184993;28;20097;-67
2022/07/19 04:39:06;;;;;;;8.82;4.50;;;;;;;17.87;60.61;99462.63;5182384;28;20139;-67
2022/07/19 04:41:56;;;;;;;8.35;4.32;;;;;;;17.85;59.16;99476.22;5155953;28;20423;-67
2022/07/19 04:44:47;;;;;;;8.25;4.15;;;;;;;17.77;60.90;99470.91;5180262;28;20133;-68
2022/07/19 04:47:37;;;;;;;11.38;4.75;;;;;;;17.94;61.25;99475.13;5172978;28;20082;-67
2022/07/19 04:50:27;;;;;;;7.38;3.90;;;;;;;17.94;61.41;99447.47;5182969;28;20433;-67
2022/07/19 04:53:17;;;;;;;11.18;4.22;;;;;;;18.08;61.63;99477.03;5182113;28;20057;-67
2022/07/19 04:56:07;;;;;;;6.13;4.40;;;;;;;18.23;61.28;99482.44;5167761;28;20057;-67
2022/07/19 04:58:57;;;;;;;8.00;4.10;;;;;;;18.42;61.03;99472.22;5180858;28;20046;-68
2022/07/19 05:01:48;;;;;;;15.10;5.00;;;;;;;18.42;62.17;99472.22;5173192;28;20647;-70
2022/07/19 05:04:42;;;;;;;8.98;5.22;;;;;;;18.43;61.47;99472.00;5178514;28;20527;-72
2022/07/19 05:07:32;;;;;;;6.55;4.50;;;;;;;18.54;60.63;99470.72;5183725;28;20424;-67
2022/07/19 05:10:23;;;;;;;10.15;4.18;;;;;;;18.55;60.00;99467.03;5174202;28;20050;-68
2022/07/19 05:13:13;;;;;;;5.88;3.97;;;;;;;18.48;59.62;99461.56;5177260;28;20062;-68
2022/07/19 05:16:03;;;;;;;9.13;4.28;;;;;;;18.52;61.37;99470.09;5175617;28;20069;-68
2022/07/19 05:18:54;;;;;;;11.15;4.25;;;;;;;18.84;61.22;99460.88;5168271;28;20045;-69
2022/07/19 05:21:44;;;;;;;7.47;4.45;;;;;;;18.86;61.62;99469.56;5180705;28;20053;-67
2022/07/19 05:24:34;;;;;;;10.07;4.00;;;;;;;18.95;60.94;99468.47;5180637;28;20049;-67
2022/07/19 05:27:25;;;;;;;12.20;4.57;;;;;;;18.98;60.70;99470.78;5182429;28;20077;-69
2022/07/19 05:30:15;;;;;;;10.20;4.40;;;;;;;19.04;61.10;99463.84;5180138;28;20095;-67
2022/07/19 05:33:05;;;;;;;14.65;4.82;;;;;;;19.24;61.51;99464.91;5181972;28;20526;-67
2022/07/19 05:35:56;;;;;;;17.25;5.22;;;;;;;19.33;62.00;99462.09;5176983;28;20507;-71
2022/07/19 05:38:46;;;;;;;21.23;4.80;;;;;;;19.37;58.67;99440.03;5181516;28;20053;-70
2022/07/19 05:41:36;;;;;;;16.67;5.10;;;;;;;19.78;58.39;99462.84;5179939;28;20068;-70
2022/07/19 05:44:26;;;;;;;12.98;5.30;;;;;;;19.99;57.90;99441.28;5165128;28;20195;-69
2022/07/19 05:47:17;;;;;;;18.92;5.15;;;;;;;20.09;57.89;99457.13;5182439;28;20415;-69
2022/07/19 05:50:08;;;;;;;15.00;4.43;;;;;;;20.11;56.65;99458.59;5178257;28;20050;-70
2022/07/19 05:52:58;;;;;;;11.48;4.18;;;;;;;20.11;57.21;99458.59;5178296;28;20049;-69
2022/07/19 05:55:48;;;;;;;16.98;4.78;;;;;;;20.28;58.01;99467.22;5181546;28;20453;-70
2022/07/19 05:58:39;;;;;;;19.65;5.00;;;;;;;20.23;57.60;99440.06;5170718;28;20571;-68
2022/07/19 06:01:29;;;;;;;16.00;4.78;;;;;;;20.41;57.52;99456.56;5171107;28;20447;-67
2022/07/19 06:04:19;;;;;;;12.45;4.55;;;;;;;20.49;55.79;99449.34;5166335;28;20530;-69
2022/07/19 06:07:09;;;;;;;13.18;4.30;;;;;;;20.50;55.83;99419.53;5164339;28;20459;-68
2022/07/19 06:10:01;;;;;;;9.38;3.70;;;;;;;21.03;53.50;99454.06;5164776;28;20432;-68
2022/07/19 06:12:52;;;;;;;4.78;3.58;;;;;;;21.40;51.41;99446.56;5156331;28;20614;-69
2022/07/19 06:15:42;;;;;;;10.25;3.88;;;;;;;21.93;48.95;99452.91;5174797;28;20471;-71
2022/07/19 06:18:34;;;;;;;6.72;4.13;;;;;;;21.94;48.94;99443.75;5186868;28;20412;-69
2022/07/19 06:21:25;;;;;;;9.80;4.55;;;;;;;22.09;48.69;99456.25;5179201;28;20432;-68
2022/07/19 06:24:15;;;;;;;7.15;2.85;;;;;;;22.40;47.19;99451.06;5180679;28;20431;-69
2022/07/19 06:27:05;;;;;;;7.28;3.10;;;;;;;22.48;47.07;99442.75;5181409;28;20104;-69
2022/07/19 06:29:55;;;;;;;3.58;2.72;;;;;;;22.58;46.91;99450.41;5176108;28;20053;-68
2022/07/19 06:32:45;;;;;;;5.75;3.33;;;;;;;22.70;47.29;99447.88;5177396;28;20048;-69
2022/07/19 06:35:35;;;;;;;7.53;2.70;;;;;;;22.69;48.12;99449.75;5180525;28;20146;-69
2022/07/19 06:38:26;;;;;;;5.38;2.85;;;;;;;23.12;45.34;99451.97;5179936;28;20125;-69
2022/07/19 06:41:16;;;;;;;6.85;3.28;;;;;;;23.76;43.00;99441.25;5175057;28;20053;-71
2022/07/19 06:44:06;;;;;;;6.18;3.20;;;;;;;23.68;43.47;99442.34;5173602;28;20566;-71
2022/07/19 06:46:57;;;;;;;6.75;2.88;;;;;;;24.16;43.32;99447.19;5175167;28;20054;-69
2022/07/19 06:49:47;;;;;;;6.18;3.00;;;;;;;24.01;43.84;99449.41;5181613;28;20538;-70
2022/07/19 06:52:38;;;;;;;8.50;3.00;;;;;;;23.97;43.74;99421.09;5179357;28;20138;-67
2022/07/19 06:55:28;;;;;;;7.28;3.10;;;;;;;24.44;42.93;99448.66;5179671;28;20056;-69
2022/07/19 06:58:18;;;;;;;5.97;2.90;;;;;;;24.79;41.74;99447.03;5173012;28;20125;-68
2022/07/19 07:01:09;;;;;;;9.43;2.70;;;;;;;24.92;43.88;99439.81;5178137;28;20057;-69
2022/07/19 07:03:59;;;;;;;8.90;3.33;;;;;;;25.29;40.93;99444.16;5171689;28;20050;-69
2022/07/19 07:06:50;;;;;;;6.53;3.30;;;;;;;26.02;39.41;99439.59;5180789;28;20053;-69
2022/07/19 07:09:39;;;;;;;8.18;2.60;;;;;;;26.48;40.23;99440.72;5180068;28;20541;-69
2022/07/19 07:12:29;;;;;;;6.07;2.50;;;;;;;27.80;37.43;99436.41;5181008;28;20514;-69
2022/07/19 07:15:20;;;;;;;4.60;2.80;;;;;;;28.96;35.91;99435.72;5174954;28;20084;-69
2022/07/19 07:18:10;;;;;;;8.23;2.63;;;;;;;30.04;33.59;99435.03;5177046;28;20042;-69
2022/07/19 07:21:00;;;;;;;10.52;2.95;;;;;;;30.59;32.03;99426.41;5177301;28;20045;-69
2022/07/19 07:23:51;;;;;;;10.07;2.50;;;;;;;31.01;31.59;99431.03;5178798;28;20422;-69
2022/07/19 07:26:41;;;;;;;4.40;2.38;;;;;;;31.87;29.92;99423.34;5175693;28;20107;-69
2022/07/19 07:29:32;;;;;;;6.50;2.63;;;;;;;32.00;30.78;99422.81;5178797;28;20099;-69
2022/07/19 07:32:21;;;;;;;5.65;2.20;;;;;;;32.43;29.72;99423.34;5175493;28;20065;-69
2022/07/19 07:35:12;;;;;;;10.77;2.50;;;;;;;33.32;29.61;99410.69;5175456;28;20064;-70
2022/07/19 07:38:02;;;;;;;10.45;2.63;;;;;;;33.63;27.77;99422.34;5173969;28;20093;-69
2022/07/19 07:40:52;;;;;;;4.00;2.38;;;;;;;33.80;27.63;99424.69;5176841;28;20112;-69
2022/07/19 07:44:01;;;;;;;10.88;2.40;;;;;;;33.88;27.11;99412.28;5178922;28;20049;-69
2022/07/19 07:46:50;;;;;;;4.43;2.53;;;;;;;34.00;27.54;99415.47;5168684;28;20053;-69
2022/07/19 07:49:41;;;;;;;9.57;2.30;;;;;;;34.19;28.86;99418.34;5178774;28;20577;-69
2022/07/19 07:52:31;;;;;;;10.05;2.47;;;;;;;35.14;26.75;99413.25;5178046;28;20696;-69
2022/07/19 07:55:22;;;;;;;8.02;2.22;;;;;;;35.50;25.20;99402.53;5178790;28;20050;-69
2022/07/19 07:58:17;;;;;;;6.57;1.95;;;;;;;35.78;25.49;99408.19;5179601;28;20423;-70
2022/07/19 08:01:07;;;;;;;5.45;1.95;;;;;;;36.27;24.00;99404.06;5176241;28;20055;-69
2022/07/19 08:03:57;;;;;;;3.28;1.63;;;;;;;36.48;23.64;99386.00;5178726;28;20435;-69
2022/07/19 08:06:47;;;;;;;5.78;1.67;;;;;;;36.91;23.28;99405.88;5177441;28;20072;-69
2022/07/19 08:09:38;;;;;;;2.90;1.70;;;;;;;37.07;22.73;99386.22;5178007;28;20680;-69
2022/07/19 08:12:28;;;;;;;9.25;2.08;;;;;;;37.22;24.01;99396.97;5171526;28;20116;-69
2022/07/19 08:15:18;;;;;;;5.18;1.90;;;;;;;37.73;23.02;99398.56;5160401;28;20060;-70
2022/07/19 08:18:08;;;;;;;5.32;2.10;;;;;;;38.07;22.54;99400.75;5172647;28;20054;-69
2022/07/19 08:20:58;;;;;;;4.22;1.88;;;;;;;38.00;21.03;99394.84;5180472;28;20141;-70
2022/07/19 08:23:48;;;;;;;6.88;2.33;;;;;;;38.07;21.34;99394.41;5173635;28;20431;-69
2022/07/19 08:26:38;;;;;;;5.55;1.90;;;;;;;37.84;21.85;99388.84;5178702;28;20121;-69
2022/07/19 08:29:28;;;;;;;5.25;1.73;;;;;;;37.89;22.13;99376.84;5179644;28;20047;-70
2022/07/19 08:32:19;;;;;;;2.75;1.58;;;;;;;38.52;21.28;99384.09;5174305;28;20096;-69
2022/07/19 08:35:10;;;;;;;3.85;1.50;;;;;;;38.61;19.46;99374.97;5174102;28;20057;-69
2022/07/19 08:38:00;;;;;;;2.35;1.42;;;;;;;38.73;22.98;99378.75;5178986;28;20053;-70
2022/07/19 08:40:53;;;;;;;3.42;1.80;;;;;;;38.26;19.05;99378.41;5174166;28;20057;-69
2022/07/19 08:43:44;;;;;;;4.63;1.73;;;;;;;38.51;19.90;99376.06;5172977;28;20054;-69
2022/07/19 08:46:34;;;;;;;6.18;1.70;;;;;;;39.17;19.73;99376.91;5174088;28;20056;-70
2022/07/19 08:49:24;;;;;;;2.10;1.85;;;;;;;38.93;19.04;99376.56;5180780;28;20057;-69
2022/07/19 08:52:16;;;;;;;5.75;1.65;;;;;;;39.22;18.47;99381.50;5177926;28;20132;-69
2022/07/19 08:55:07;;;;;;;2.35;1.40;;;;;;;39.76;20.04;99379.25;5177777;28;20073;-69
2022/07/19 08:57:57;;;;;;;7.40;1.65;;;;;;;40.16;19.17;99368.75;5179924;28;20058;-69
2022/07/19 09:00:47;;;;;;;4.40;1.50;;;;;;;39.88;17.95;99370.28;5176563;28;20913;-70
2022/07/19 09:04:06;;;;;;;4.85;1.50;;;;;;;39.55;18.75;99367.19;5177248;28;20056;-67
2022/07/19 09:06:58;;;;;;;4.20;1.55;;;;;;;39.57;18.74;99354.63;5174668;28;20523;-69
2022/07/19 09:09:49;;;;;;;3.92;1.80;;;;;;;38.46;19.03;99363.19;5179901;28;20068;-69
2022/07/19 09:13:04;;;;;;;6.45;1.70;;;;;;;38.58;18.72;99370.06;5178162;28;20515;-69
2022/07/19 09:15:54;;;;;;;3.83;1.45;;;;;;;38.91;18.02;99374.13;5177253;28;20639;-69
2022/07/19 09:18:46;;;;;;;3.33;1.67;;;;;;;38.21;18.36;99372.97;5164704;28;20148;-69
2022/07/19 09:22:08;;;;;;;5.60;1.83;;;;;;;38.78;18.01;99363.97;5180421;28;20054;-69
2022/07/19 09:24:58;;;;;;;1.55;1.33;;;;;;;38.50;18.28;99363.38;5180767;28;20054;-69
2022/07/19 09:27:57;;;;;;;2.33;1.40;;;;;;;39.23;17.73;99361.75;5179713;28;20423;-69
2022/07/19 09:30:50;;;;;;;4.10;1.60;;;;;;;38.85;18.22;99358.78;5175854;28;20412;-69
2022/07/19 09:33:46;;;;;;;4.28;1.90;;;;;;;38.03;18.34;99338.03;5177425;28;20050;-69
2022/07/19 09:36:36;;;;;;;3.92;1.73;;;;;;;37.63;18.03;99357.31;5178934;28;20077;-69
2022/07/19 09:39:29;;;;;;;8.88;1.80;;;;;;;38.36;18.56;99346.84;5182487;28;20122;-69
2022/07/19 09:42:34;;;;;;;6.57;1.52;;;;;;;38.80;17.41;99349.75;5167134;28;20111;-69
2022/07/19 09:45:28;;;;;;;4.65;1.80;;;;;;;39.44;17.97;99338.97;5176023;28;20080;-69
2022/07/19 09:48:18;;;;;;;5.47;1.80;;;;;;;38.57;17.51;99346.28;5180975;28;20619;-69
2022/07/19 09:51:09;;;;;;;6.18;1.80;;;;;;;38.42;17.65;99353.91;5182062;28;20530;-69
2022/07/19 09:54:02;;;;;;;2.17;1.67;;;;;;;38.62;18.26;99352.50;5181887;28;20135;-69
2022/07/19 09:56:54;;;;;;;3.50;2.00;;;;;;;39.06;16.71;99347.88;5174440;28;20057;-69
2022/07/19 09:59:50;;;;;;;4.85;2.08;;;;;;;37.94;17.01;99345.47;5176668;28;20431;-69
2022/07/19 10:02:44;;;;;;;5.80;1.77;;;;;;;39.10;17.68;99343.31;5181695;28;20135;-69
2022/07/19 10:05:36;;;;;;;5.45;2.20;;;;;;;38.74;17.77;99349.09;5177552;28;20050;-69
2022/07/19 10:08:26;;;;;;;5.00;1.80;;;;;;;38.52;16.88;99339.75;5180078;28;20081;-69
2022/07/19 10:11:17;;;;;;;11.25;2.08;;;;;;;37.82;17.62;99344.09;5179831;28;20057;-69
2022/07/19 10:14:08;;;;;;;3.67;1.65;;;;;;;37.96;17.88;99337.69;5178295;28;20112;-69
2022/07/19 10:17:14;;;;;;;4.97;1.80;;;;;;;38.70;17.39;99323.97;5175283;28;20057;-69
2022/07/19 10:20:06;;;;;;;3.15;1.65;;;;;;;39.21;16.95;99322.44;5180851;28;20109;-69
2022/07/19 10:23:01;;;;;;;3.95;1.83;;;;;;;38.71;17.07;99320.09;5179910;28;20072;-69
2022/07/19 10:25:51;;;;;;;3.60;2.00;;;;;;;38.17;18.20;99324.09;5157704;28;20061;-69
2022/07/19 10:28:42;;;;;;;4.22;2.50;;;;;;;38.45;17.54;99319.22;5160055;28;20092;-69
2022/07/19 10:32:06;;;;;;;6.75;2.15;;;;;;;39.34;16.44;99292.09;5167903;28;20421;-69
2022/07/19 10:35:19;;;;;;;3.15;2.33;;;;;;;38.84;18.22;99304.47;5180855;28;20120;-69
2022/07/19 10:38:11;;;;;;;2.70;2.03;;;;;;;39.14;17.11;99296.34;5176911;28;20122;-69
2022/07/19 10:41:01;;;;;;;3.05;2.00;;;;;;;39.99;15.91;99295.75;5164416;28;20412;-70
2022/07/19 10:44:08;;;;;;;4.80;2.33;;;;;;;39.44;16.98;99289.03;5177743;28;20054;-69
2022/07/19 10:46:59;;;;;;;5.45;2.40;;;;;;;39.53;16.02;99291.78;5178042;28;20089;-69
2022/07/19 10:49:49;;;;;;;2.55;1.95;;;;;;;39.90;17.18;99288.28;5180940;28;20068;-69
2022/07/19 10:52:42;;;;;;;9.55;2.33;;;;;;;39.92;17.30;99290.72;5181446;28;20053;-71
2022/07/19 10:55:32;;;;;;;3.78;2.53;;;;;;;39.79;17.60;99281.44;5178485;28;20152;-70
2022/07/19 10:58:22;;;;;;;7.82;2.40;;;;;;;39.54;18.17;99280.34;5170602;28;20104;-70
2022/07/19 11:01:18;;;;;;;4.40;2.67;;;;;;;39.83;17.09;99271.31;5179046;28;20065;-69
2022/07/19 11:04:28;;;;;;;3.13;1.92;;;;;;;39.96;18.10;99274.22;5179850;28;20052;-69
2022/07/19 11:07:21;;;;;;;7.43;2.47;;;;;;;38.92;16.95;99275.94;5166155;28;20038;-69
2022/07/19 11:10:11;;;;;;;;;;;;;;;38.78;18.66;99265.00;5181978;28;20044;-69
2022/07/19 11:13:02;;;;;;;7.05;2.58;;;;;;;38.97;16.60;99255.56;5179323;28;20012;-70
2022/07/19 11:15:57;;;;;;;5.63;2.30;;;;;;;39.54;17.92;99258.16;5177882;28;20417;-69
2022/07/19 11:18:47;;;;;;;7.55;3.15;;;;;;;39.04;16.36;99250.34;5177284;28;20172;-70
2022/07/19 11:21:41;;;;;;;11.95;4.78;;;;;;;39.22;16.61;99249.19;5175365;28;20050;-68
2022/07/19 11:24:31;;;;;;;4.38;2.17;;;;;;;37.53;17.98;99247.72;5181238;28;20504;-69
2022/07/19 11:27:22;;;;;;;4.10;1.75;;;;;;;37.97;18.24;99234.13;5180349;28;20500;-69
2022/07/19 11:30:13;;;;;;;3.70;2.20;;;;;;;37.91;16.87;99244.50;5179902;28;20049;-69
2022/07/19 11:33:10;;;;;;;4.28;2.40;;;;;;;37.65;16.20;99143.94;5180199;28;20061;-68
2022/07/19 11:36:07;;;;;;;4.47;2.40;;;;;;;38.78;17.67;99231.72;5156717;28;20043;-82
2022/07/19 11:38:59;;;;;;;2.90;2.00;;;;;;;37.94;17.26;99230.03;5134932;28;20115;-83
2022/07/19 11:41:50;;;;;;;4.85;2.20;;;;;;;37.67;18.09;99216.38;5132838;29;20062;-83
2022/07/19 11:44:40;;;;;;;5.43;2.28;;;;;;;37.82;17.48;99224.28;5134091;28;20078;-85
2022/07/19 11:47:33;;;;;;;5.35;2.20;;;;;;;37.11;18.11;99219.41;5125827;29;20039;-82
2022/07/19 11:50:25;;;;;;;2.95;1.83;;;;;;;38.24;16.17;99216.44;5120939;29;20047;-82
2022/07/19 11:53:20;;;;;;;5.38;2.03;;;;;;;38.01;15.80;99219.31;5119736;29;20043;-84
2022/07/19 11:56:19;;;;;;;7.85;2.28;;;;;;;37.85;17.66;99216.16;5110445;29;20055;-83
2022/07/19 11:59:10;;;;;;;6.00;2.10;;;;;;;37.94;17.58;99191.28;5132301;29;20038;-84
2022/07/19 12:02:00;;;;;;;4.70;2.22;;;;;;;37.73;17.03;99196.56;5131286;29;20052;-83
2022/07/19 12:04:51;;;;;;;3.60;1.95;;;;;;;37.77;17.15;99191.19;5142290;28;20040;-83
2022/07/19 12:07:48;;;;;;;5.20;1.90;;;;;;;37.52;17.66;99201.84;5109397;29;20066;-83
2022/07/19 12:10:44;;;;;;;2.33;1.90;;;;;;;37.97;17.81;99179.56;5127279;29;20055;-81
2022/07/19 12:13:35;;;;;;;5.63;2.10;;;;;;;37.39;18.61;99181.41;5118653;28;20116;-84
2022/07/19 12:16:29;;;;;;;4.38;1.85;;;;;;;37.64;16.69;99187.41;5134623;28;20285;-83
2022/07/19 12:19:20;;;;;;;3.38;2.17;;;;;;;37.35;17.87;99183.16;5122876;29;20095;-83
2022/07/19 12:22:46;;;;;;;6.53;2.30;;;;;;;37.49;18.11;99185.06;5121323;28;20111;-84
2022/07/19 12:25:37;;;;;;;5.88;2.20;;;;;;;37.57;16.89;99176.78;5081272;29;20067;-82
2022/07/19 12:28:27;;;;;;;3.38;1.95;;;;;;;37.63;17.79;99177.47;5113507;29;20106;-81
2022/07/19 12:31:18;;;;;;;5.50;2.00;;;;;;;37.07;18.06;99173.38;5106448;29;20062;-83
2022/07/19 12:34:08;;;;;;;5.80;2.40;;;;;;;37.36;17.25;99159.09;5091948;29;20259;-81
2022/07/19 12:37:16;;;;;;;3.70;2.00;;;;;;;36.85;18.37;99149.28;5100215;29;20143;-82
2022/07/19 12:40:13;;;;;;;5.43;2.20;;;;;;;36.30;17.86;99166.84;5089431;29;20190;-84
2022/07/19 12:43:03;;;;;;;5.75;2.22;;;;;;;36.95;18.55;99162.03;5074989;29;20082;-83
2022/07/19 12:45:53;;;;;;;4.88;2.40;;;;;;;36.89;17.76;99150.31;5087598;29;20058;-84
2022/07/19 12:48:43;;;;;;;5.13;1.95;;;;;;;37.04;16.95;99154.66;5074296;29;20070;-84
2022/07/19 12:51:34;;;;;;;6.05;2.33;;;;;;;36.90;17.38;99147.22;5099177;29;20054;-83
2022/07/19 12:54:24;;;;;;;4.30;2.35;;;;;;;36.84;18.19;99131.09;5102168;29;21998;-83
2022/07/19 12:57:15;;;;;;;5.35;2.20;;;;;;;36.61;19.20;99157.88;5106751;29;20070;-82
2022/07/19 13:00:06;;;;;;;3.50;2.17;;;;;;;36.21;18.43;99163.16;5111809;29;20098;-83
2022/07/19 13:02:58;;;;;;;7.32;2.38;;;;;;;36.42;19.33;99153.28;5110677;28;20051;-82
2022/07/19 13:05:48;;;;;;;6.93;2.25;;;;;;;36.44;18.20;99155.75;5102587;29;20511;-82
2022/07/19 13:08:38;;;;;;;5.28;2.22;;;;;;;36.44;18.81;99156.56;5089370;29;20047;-85
2022/07/19 13:11:28;;;;;;;8.30;2.38;;;;;;;35.61;19.28;99138.44;5116563;29;20066;-83
2022/07/19 13:14:19;;;;;;;6.43;2.50;;;;;;;35.86;18.30;99139.84;5129413;28;20065;-80
2022/07/19 13:17:10;;;;;;;7.20;2.63;;;;;;;36.05;18.91;99142.53;5130318;28;20087;-80
2022/07/19 13:20:03;;;;;;;5.18;2.35;;;;;;;36.45;19.33;99136.09;5139254;28;20075;-79
2022/07/19 13:22:53;;;;;;;8.13;2.67;;;;;;;36.20;18.87;99131.19;5129177;28;20070;-81
2022/07/19 13:25:43;;;;;;;7.07;2.50;;;;;;;35.38;19.31;99124.50;5109591;29;20208;-82